Time;durP1;ratioP1;P1;durP2;ratioP2;P2;SDS_P1;SDS_P2;PMS_P1;PMS_P2;Temp;Humidity;BMP_temperature;BMP_pressure;BME280_temperature;BME280_humidity;BME280_pressure;Samples;Min_cycle;Max_cycle;Signal;HPM_P1;HPM_P2
2022/09/06 00:02:31;;;;;;;2.13;1.00;;;;;;;15.44;100.00;101535.63;5030951;28;20419;-86
2022/09/06 00:05:06;;;;;;;3.95;1.10;;;;;;;15.44;100.00;101545.81;5004844;28;20797;-86
2022/09/06 00:07:40;;;;;;;2.17;1.00;;;;;;;15.34;100.00;101546.69;5004810;28;20469;-85
2022/09/06 00:10:14;;;;;;;1.52;0.90;;;;;;;15.32;100.00;101543.44;5006369;28;20436;-87
2022/09/06 00:12:48;;;;;;;5.78;1.00;;;;;;;15.19;100.00;101535.91;5025106;28;20768;-86
2022/09/06 00:15:21;;;;;;;1.90;0.90;;;;;;;15.20;100.00;101537.53;5010171;28;20485;-87
2022/09/06 00:17:50;;;;;;;2.20;0.98;;;;;;;15.34;100.00;101532.19;5008875;28;20450;-84
2022/09/06 00:20:26;;;;;;;3.05;1.10;;;;;;;15.23;100.00;101528.72;5011592;28;20427;-87
2022/09/06 00:22:59;;;;;;;3.55;0.93;;;;;;;15.09;100.00;101526.69;5011433;28;20453;-87
2022/09/06 00:25:34;;;;;;;1.92;1.10;;;;;;;15.00;100.00;101525.69;5008371;28;20427;-87
2022/09/06 00:28:04;;;;;;;1.50;0.95;;;;;;;15.00;100.00;101522.94;5028453;28;20775;-87
2022/09/06 00:30:38;;;;;;;2.10;1.10;;;;;;;15.02;100.00;101519.91;5018681;28;20434;-84
2022/09/06 00:33:06;;;;;;;1.40;0.90;;;;;;;15.08;100.00;101522.31;5030743;28;20435;-86
2022/09/06 00:35:39;;;;;;;2.00;0.95;;;;;;;15.06;100.00;101524.50;5024646;28;20438;-85
2022/09/06 00:38:12;;;;;;;2.22;1.10;;;;;;;15.06;100.00;101520.97;5019489;28;20896;-88
2022/09/06 00:40:42;;;;;;;2.42;0.90;;;;;;;15.03;100.00;101519.63;5010069;28;20923;-86
2022/09/06 00:43:15;;;;;;;3.08;1.30;;;;;;;15.06;100.00;101520.97;5025658;28;20919;-84
2022/09/06 00:45:48;;;;;;;1.60;1.00;;;;;;;15.00;100.00;101519.38;5014104;28;20432;-84
2022/09/06 00:48:23;;;;;;;2.50;1.03;;;;;;;14.99;100.00;101524.03;5021322;28;20440;-85
2022/09/06 00:50:58;;;;;;;2.70;1.10;;;;;;;14.92;100.00;101529.03;5024288;28;20759;-86
2022/09/06 00:53:32;;;;;;;2.60;1.20;;;;;;;14.89;100.00;101516.72;5027630;28;20423;-84
2022/09/06 00:56:07;;;;;;;2.00;1.00;;;;;;;15.14;100.00;101518.41;5025626;28;20420;-88
2022/09/06 00:58:40;;;;;;;3.83;1.20;;;;;;;15.10;100.00;101524.75;5020910;28;20778;-86
2022/09/06 01:01:14;;;;;;;4.03;0.98;;;;;;;15.16;100.00;101520.84;5004878;28;20442;-86
2022/09/06 01:03:42;;;;;;;2.70;1.05;;;;;;;15.19;100.00;101523.03;5030655;28;20933;-87
2022/09/06 01:06:23;;;;;;;4.00;1.08;;;;;;;15.18;100.00;101524.13;5011303;28;20427;-85
2022/09/06 01:09:10;;;;;;;2.33;1.15;;;;;;;15.12;100.00;101519.78;5027519;28;20423;-87
2022/09/06 01:11:58;;;;;;;2.20;1.10;;;;;;;15.02;100.00;101511.69;5028588;28;20433;-86
2022/09/06 01:14:43;;;;;;;2.45;1.00;;;;;;;15.04;100.00;101509.47;5032504;28;20415;-88
2022/09/06 01:17:21;;;;;;;2.15;1.00;;;;;;;14.99;100.00;101506.78;5014355;28;20427;-86
2022/09/06 01:20:23;;;;;;;4.07;1.10;;;;;;;14.81;100.00;101505.59;5014761;28;20422;-87
2022/09/06 01:23:21;;;;;;;2.40;0.90;;;;;;;14.78;100.00;101501.50;5009856;28;20462;-86
2022/09/06 01:26:05;;;;;;;2.15;1.13;;;;;;;14.90;100.00;101518.38;5030730;28;20438;-88
2022/09/06 01:28:42;;;;;;;2.17;1.10;;;;;;;14.94;100.00;101516.69;5031250;28;20442;-86
2022/09/06 01:31:23;;;;;;;1.92;1.10;;;;;;;15.01;100.00;101521.84;5031766;28;20415;-86
2022/09/06 01:34:19;;;;;;;2.83;1.10;;;;;;;15.08;100.00;101522.31;5030612;28;20431;-86
2022/09/06 01:36:52;;;;;;;4.70;1.17;;;;;;;15.07;100.00;101515.19;5031983;28;20422;-85
2022/09/06 01:39:24;;;;;;;3.08;1.00;;;;;;;15.07;100.00;101506.97;5032927;28;20415;-87
2022/09/06 01:41:53;;;;;;;5.78;1.20;;;;;;;15.14;100.00;101523.88;5001816;28;20442;-85
2022/09/06 01:44:25;;;;;;;5.07;1.20;;;;;;;15.16;100.00;101523.59;5028408;28;20903;-86
2022/09/06 01:47:00;;;;;;;2.33;1.13;;;;;;;15.17;100.00;101517.00;5012809;28;20451;-86
2022/09/06 01:49:46;;;;;;;2.13;1.10;;;;;;;15.08;100.00;101518.72;5023108;28;20431;-87
2022/09/06 01:52:21;;;;;;;3.50;1.10;;;;;;;15.19;100.00;101512.06;5029383;28;20490;-86
2022/09/06 01:55:14;;;;;;;2.45;1.05;;;;;;;15.27;100.00;101510.59;5002865;28;20425;-85
2022/09/06 01:58:04;;;;;;;2.20;1.05;;;;;;;15.17;100.00;101524.41;5028323;28;20512;-90
2022/09/06 02:00:45;;;;;;;1.73;1.02;;;;;;;15.08;100.00;101514.09;5025330;28;20915;-85
2022/09/06 02:03:28;;;;;;;1.10;0.82;;;;;;;15.14;100.00;101521.13;5028745;28;20874;-88
2022/09/06 02:06:06;;;;;;;3.57;1.20;;;;;;;15.14;100.00;101512.09;5030973;28;20522;-86
2022/09/06 02:08:43;;;;;;;2.78;1.15;;;;;;;15.18;100.00;101517.81;5029048;28;20422;-84
2022/09/06 02:11:17;;;;;;;3.42;1.05;;;;;;;15.17;100.00;101522.47;5029634;28;20441;-88
2022/09/06 02:13:55;;;;;;;7.25;1.10;;;;;;;15.12;100.00;101519.78;5016310;28;20428;-84
2022/09/06 02:16:32;;;;;;;2.90;1.20;;;;;;;15.11;100.00;101527.22;5028309;28;20435;-87
2022/09/06 02:19:06;;;;;;;4.75;1.10;;;;;;;15.06;100.00;101502.56;5028625;28;20428;-87
2022/09/06 02:21:43;;;;;;;2.05;1.08;;;;;;;15.13;100.00;101516.78;5028530;28;20434;-85
2022/09/06 02:24:17;;;;;;;2.30;1.00;;;;;;;15.00;100.00;101522.09;5010018;28;20790;-86
2022/09/06 02:26:50;;;;;;;5.85;0.90;;;;;;;14.94;100.00;101511.22;5005154;28;20771;-86
2022/09/06 02:29:23;;;;;;;4.53;1.20;;;;;;;15.06;100.00;101496.28;5030288;28;20431;-87
2022/09/06 02:32:03;;;;;;;1.92;1.00;;;;;;;14.88;100.00;101484.13;5031660;28;20415;-86
2022/09/06 02:34:38;;;;;;;1.83;1.00;;;;;;;15.03;100.00;101500.44;5003405;28;20426;-87
2022/09/06 02:37:07;;;;;;;2.92;1.17;;;;;;;14.84;100.00;101499.53;5017489;28;20432;-87
2022/09/06 02:39:40;;;;;;;2.33;1.20;;;;;;;14.76;100.00;101490.84;5026278;28;20426;-86
2022/09/06 02:42:17;;;;;;;3.53;1.08;;;;;;;14.95;100.00;101482.69;5028193;28;20427;-86
2022/09/06 02:44:50;;;;;;;2.05;1.00;;;;;;;14.87;100.00;101482.50;5029574;28;20796;-88
2022/09/06 02:47:19;;;;;;;2.65;1.00;;;;;;;14.79;100.00;101490.25;5009169;28;20434;-87
2022/09/06 02:49:52;;;;;;;1.90;1.02;;;;;;;14.93;100.00;101479.41;5010289;28;20427;-85
2022/09/06 02:52:26;;;;;;;2.15;1.13;;;;;;;14.79;100.00;101486.69;5028823;28;20422;-86
2022/09/06 02:54:54;;;;;;;1.88;0.98;;;;;;;14.66;100.00;101482.69;5026857;28;20445;-86
2022/09/06 02:57:27;;;;;;;3.40;1.20;;;;;;;14.79;99.92;101483.97;5028265;28;20434;-87
2022/09/06 03:00:00;;;;;;;3.17;1.05;;;;;;;14.75;100.00;101480.16;5028249;28;20420;-87
2022/09/06 03:02:29;;;;;;;3.22;1.13;;;;;;;14.81;100.00;101483.66;5029595;28;20430;-87
2022/09/06 03:04:57;;;;;;;2.30;0.95;;;;;;;14.66;100.00;101470.94;5015072;28;20439;-86
2022/09/06 03:07:30;;;;;;;4.15;1.15;;;;;;;14.53;100.00;101486.06;5029921;28;20419;-87
2022/09/06 03:10:04;;;;;;;3.38;1.38;;;;;;;14.71;100.00;101477.16;5025303;28;20427;-86
2022/09/06 03:12:37;;;;;;;2.63;1.10;;;;;;;14.79;98.19;101478.47;5025197;28;20792;-84
2022/09/06 03:15:11;;;;;;;1.95;1.08;;;;;;;14.69;100.00;101481.31;5011666;28;20438;-85
2022/09/06 03:17:41;;;;;;;1.80;0.98;;;;;;;14.55;100.00;101470.97;5030496;28;20431;-85
2022/09/06 03:20:10;;;;;;;5.07;1.00;;;;;;;14.45;100.00;101490.25;5028814;28;20799;-87
2022/09/06 03:22:43;;;;;;;3.87;1.10;;;;;;;14.52;99.10;101484.44;5025477;28;20434;-86
2022/09/06 03:25:12;;;;;;;2.55;1.00;;;;;;;14.50;100.00;101479.25;5020651;28;20428;-87
2022/09/06 03:27:45;;;;;;;2.15;1.13;;;;;;;14.60;94.97;101470.13;5027316;28;20911;-87
2022/09/06 03:30:13;;;;;;;2.05;1.02;;;;;;;14.58;94.46;101467.69;5012885;28;20430;-85
2022/09/06 03:32:48;;;;;;;3.00;0.90;;;;;;;14.68;93.67;101463.22;5036246;28;20430;-86
2022/09/06 03:35:21;;;;;;;2.63;1.10;;;;;;;14.40;100.00;101449.19;5027797;28;20426;-86
2022/09/06 03:37:54;;;;;;;1.50;0.90;;;;;;;14.30;100.00;101458.31;5025047;28;20435;-86
2022/09/06 03:40:27;;;;;;;3.85;1.10;;;;;;;14.42;98.62;101449.75;5029361;28;20762;-87
2022/09/06 03:43:00;;;;;;;3.05;1.13;;;;;;;14.48;99.22;101443.09;5024526;28;20423;-85
2022/09/06 03:45:33;;;;;;;3.72;1.10;;;;;;;14.45;94.38;101446.41;5023703;28;20427;-84
2022/09/06 03:48:08;;;;;;;1.55;0.93;;;;;;;14.58;90.86;101440.28;5007692;28;20910;-87
2022/09/06 03:50:44;;;;;;;4.43;1.08;;;;;;;14.46;92.62;101437.91;5026900;28;20415;-84
2022/09/06 03:53:18;;;;;;;3.17;1.20;;;;;;;14.54;90.40;101449.34;5027649;28;20748;-86
2022/09/06 03:55:53;;;;;;;3.95;1.10;;;;;;;14.41;96.26;101451.66;5009601;28;20470;-87
2022/09/06 03:58:30;;;;;;;6.07;1.13;;;;;;;14.37;92.73;101453.31;5025120;28;20791;-84
2022/09/06 04:01:05;;;;;;;2.80;1.20;;;;;;;14.33;95.21;101455.00;5026377;28;20435;-86
2022/09/06 04:03:41;;;;;;;1.83;0.90;;;;;;;14.28;94.20;101453.13;5024031;28;20438;-86
2022/09/06 04:06:09;;;;;;;3.17;1.00;;;;;;;14.27;96.53;101447.94;5028001;28;20419;-85
2022/09/06 04:08:42;;;;;;;3.80;1.00;;;;;;;14.25;98.53;101455.59;5019550;28;20426;-86
2022/09/06 04:11:15;;;;;;;1.73;0.90;;;;;;;14.20;100.00;101458.41;5010976;28;20423;-85
2022/09/06 04:13:49;;;;;;;2.20;1.10;;;;;;;14.18;100.00;101455.13;5012712;28;20431;-86
2022/09/06 04:16:22;;;;;;;3.30;0.90;;;;;;;14.12;97.26;101454.34;5028239;28;20420;-87
2022/09/06 04:18:51;;;;;;;2.17;0.93;;;;;;;14.18;93.49;101457.84;5009210;28;20439;-84
2022/09/06 04:21:25;;;;;;;2.35;0.95;;;;;;;14.19;97.96;101457.56;5028938;28;20426;-85
2022/09/06 04:23:58;;;;;;;4.72;1.05;;;;;;;14.17;98.29;101453.47;4994574;28;20913;-86
2022/09/06 04:26:31;;;;;;;3.07;1.07;;;;;;;14.11;97.00;101455.44;5026536;28;20442;-86
2022/09/06 04:29:04;;;;;;;2.97;1.00;;;;;;;14.27;91.05;101451.50;5010127;28;20448;-85
2022/09/06 04:31:32;;;;;;;3.05;0.93;;;;;;;14.21;96.38;101454.53;5030065;28;20780;-85
2022/09/06 04:34:01;;;;;;;4.60;1.20;;;;;;;14.27;94.93;101461.63;5018769;28;20433;-85
2022/09/06 04:36:35;;;;;;;2.88;1.00;;;;;;;14.22;91.62;101446.03;5023407;28;20425;-86
2022/09/06 04:39:08;;;;;;;3.10;1.15;;;;;;;14.26;94.63;101458.06;5020667;28;20427;-84
2022/09/06 04:41:41;;;;;;;2.40;0.93;;;;;;;14.05;98.77;101446.44;5027923;28;20427;-85
2022/09/06 04:44:14;;;;;;;2.80;1.00;;;;;;;14.00;97.34;101438.28;5028352;28;20792;-85
2022/09/06 04:46:47;;;;;;;2.03;0.88;;;;;;;14.07;93.56;101451.63;5033527;28;20419;-85
2022/09/06 04:49:22;;;;;;;4.15;0.90;;;;;;;14.11;93.70;101455.44;5032149;28;20427;-83
2022/09/06 04:51:55;;;;;;;4.00;0.93;;;;;;;14.01;93.84;101448.13;5033198;28;20429;-84
2022/09/06 04:54:28;;;;;;;4.18;0.95;;;;;;;13.93;99.63;101460.50;5031833;28;20446;-86
2022/09/06 04:57:01;;;;;;;2.55;0.90;;;;;;;13.91;100.00;101456.41;5011094;28;20439;-84
2022/09/06 04:59:34;;;;;;;5.63;1.10;;;;;;;13.89;97.76;101469.53;5013914;28;20434;-85
2022/09/06 05:02:03;;;;;;;1.40;0.90;;;;;;;13.75;100.00;101455.66;5029118;28;20438;-86
2022/09/06 05:04:37;;;;;;;2.42;0.80;;;;;;;13.80;100.00;101457.56;5031581;28;20438;-87
2022/09/06 05:07:10;;;;;;;2.75;0.90;;;;;;;13.87;100.00;101453.41;5025389;28;20779;-86
2022/09/06 05:09:43;;;;;;;3.17;0.90;;;;;;;13.88;99.85;101448.75;5015389;28;20419;-85
2022/09/06 05:12:16;;;;;;;2.50;0.98;;;;;;;13.93;95.66;101444.09;5030649;28;20804;-85
2022/09/06 05:14:50;;;;;;;3.53;1.00;;;;;;;13.95;100.00;101449.28;5015303;28;20513;-85
2022/09/06 05:17:23;;;;;;;2.20;1.00;;;;;;;13.95;96.42;101441.06;5026341;28;20439;-84
2022/09/06 05:19:57;;;;;;;2.53;1.15;;;;;;;13.98;95.99;101439.69;5027726;28;20434;-87
2022/09/06 05:22:30;;;;;;;8.60;1.00;;;;;;;13.90;96.72;101430.94;5032332;28;20419;-87
2022/09/06 05:25:04;;;;;;;2.10;0.90;;;;;;;13.95;98.73;101447.34;5031701;28;20769;-84
2022/09/06 05:27:37;;;;;;;3.00;1.13;;;;;;;13.91;100.00;101445.47;5030360;28;20423;-85
2022/09/06 05:30:11;;;;;;;4.40;1.27;;;;;;;13.90;97.22;101443.81;5032958;28;20407;-85
2022/09/06 05:32:45;;;;;;;1.70;0.90;;;;;;;13.87;100.00;101452.59;5021618;28;20433;-85
2022/09/06 05:35:19;;;;;;;2.72;0.98;;;;;;;13.97;96.47;101454.44;5028747;28;20912;-87
2022/09/06 05:37:53;;;;;;;1.50;0.80;;;;;;;13.90;100.00;101461.03;5006714;28;20872;-86
2022/09/06 05:40:26;;;;;;;2.97;0.95;;;;;;;14.01;100.00;101461.00;5032555;28;20434;-86
2022/09/06 05:42:59;;;;;;;1.77;0.90;;;;;;;14.01;96.17;101452.78;5030819;28;20427;-88
2022/09/06 05:45:32;;;;;;;3.42;1.02;;;;;;;14.04;98.38;101447.53;5031291;28;20431;-86
2022/09/06 05:48:00;;;;;;;8.88;1.10;;;;;;;13.98;100.00;101456.09;5028816;28;20443;-84
2022/09/06 05:50:29;;;;;;;2.17;1.00;;;;;;;14.05;100.00;101456.59;5030754;28;20447;-85
2022/09/06 05:53:03;;;;;;;1.38;0.93;;;;;;;14.01;98.62;101458.25;5028689;28;20431;-85
2022/09/06 05:55:31;;;;;;;3.50;0.90;;;;;;;14.05;99.97;101459.31;5029738;28;20415;-86
2022/09/06 05:58:04;;;;;;;1.92;1.20;;;;;;;14.04;100.00;101461.22;5029234;28;20926;-87
2022/09/06 06:00:37;;;;;;;1.67;0.93;;;;;;;14.07;100.00;101468.06;5028918;28;20434;-86
2022/09/06 06:03:10;;;;;;;2.08;0.82;;;;;;;14.10;100.00;101467.50;5031300;28;20431;-84
2022/09/06 06:05:39;;;;;;;1.83;0.90;;;;;;;14.08;100.00;101464.22;5003682;28;20779;-87
2022/09/06 06:08:13;;;;;;;3.33;1.10;;;;;;;14.16;100.00;101463.63;5030175;28;20431;-86
2022/09/06 06:10:46;;;;;;;4.72;0.93;;;;;;;14.14;100.00;101462.25;5028685;28;20438;-84
2022/09/06 06:13:19;;;;;;;2.47;0.98;;;;;;;14.17;100.00;101468.00;5016457;28;20438;-85
2022/09/06 06:15:52;;;;;;;2.80;1.20;;;;;;;14.12;100.00;101460.63;5026141;28;20443;-84
2022/09/06 06:18:25;;;;;;;3.30;1.60;;;;;;;14.15;100.00;101451.03;5024548;28;20431;-84
2022/09/06 06:21:14;;;;;;;2.22;1.10;;;;;;;14.18;100.00;101447.72;5006517;28;20438;-84
2022/09/06 06:23:53;;;;;;;2.65;1.10;;;;;;;14.22;100.00;101439.75;5011810;28;20568;-86
2022/09/06 06:26:22;;;;;;;1.77;0.90;;;;;;;14.23;100.00;101441.41;4996098;28;20423;-83
2022/09/06 06:28:57;;;;;;;4.70;1.27;;;;;;;14.18;100.00;101442.25;4999867;28;20443;-86
2022/09/06 06:31:32;;;;;;;1.95;1.10;;;;;;;14.36;100.00;101440.75;4988223;28;21206;-85
2022/09/06 06:34:02;;;;;;;1.47;0.90;;;;;;;14.31;100.00;101439.94;5013220;28;20415;-83
2022/09/06 06:36:32;;;;;;;2.17;0.90;;;;;;;14.42;100.00;101433.31;5006356;28;20434;-83
2022/09/06 06:39:08;;;;;;;3.25;1.10;;;;;;;14.44;100.00;101429.19;5005865;28;20434;-82
2022/09/06 06:41:41;;;;;;;9.45;4.93;;;;;;;14.60;100.00;101421.63;5004905;28;20478;-84
2022/09/06 06:44:34;;;;;;;1.65;1.00;;;;;;;14.56;100.00;101419.75;5002581;28;20445;-81
2022/09/06 06:47:02;;;;;;;4.82;1.10;;;;;;;14.66;100.00;101419.69;5009583;28;20422;-83
2022/09/06 06:49:31;;;;;;;6.30;1.20;;;;;;;14.64;100.00;101421.91;5006614;28;20427;-84
2022/09/06 06:52:05;;;;;;;3.67;1.00;;;;;;;14.70;100.00;101418.00;5003041;28;20427;-83
2022/09/06 06:54:35;;;;;;;3.00;1.20;;;;;;;14.74;100.00;101426.47;4990677;28;20431;-83
2022/09/06 06:57:04;;;;;;;4.40;1.20;;;;;;;14.73;100.00;101425.63;4985388;28;20963;-82
2022/09/06 06:59:37;;;;;;;2.85;1.10;;;;;;;14.80;100.00;101436.25;4980313;28;20438;-83
2022/09/06 07:02:06;;;;;;;3.72;1.15;;;;;;;14.90;100.00;101436.16;4998558;28;20427;-82
2022/09/06 07:04:34;;;;;;;4.87;1.10;;;;;;;14.98;100.00;101433.88;4991764;28;20438;-82
2022/09/06 07:07:08;;;;;;;3.38;1.10;;;;;;;14.96;100.00;101424.03;5000091;28;20439;-83
2022/09/06 07:09:42;;;;;;;4.20;1.13;;;;;;;15.06;100.00;101425.81;4995221;28;20933;-83
2022/09/06 07:12:10;;;;;;;9.30;1.40;;;;;;;15.12;100.00;101426.56;4988437;28;20436;-83
2022/09/06 07:14:38;;;;;;;6.15;1.20;;;;;;;15.11;100.00;101428.50;5010375;28;21991;-82
2022/09/06 07:17:11;;;;;;;3.50;1.10;;;;;;;15.16;100.00;101424.09;5008472;28;20425;-81
2022/09/06 07:19:44;;;;;;;5.37;1.27;;;;;;;15.11;100.00;101425.78;5000202;28;20506;-83
2022/09/06 07:22:19;;;;;;;7.55;1.60;;;;;;;15.26;100.00;101426.69;5004737;28;20437;-83
2022/09/06 07:24:47;;;;;;;10.40;3.33;;;;;;;15.33;100.00;101427.16;5007476;28;20446;-84
2022/09/06 07:27:20;;;;;;;9.95;2.05;;;;;;;15.29;100.00;101428.88;4995923;28;20457;-86
2022/09/06 07:29:53;;;;;;;3.05;1.20;;;;;;;15.25;100.00;101423.13;4996663;28;20430;-81
2022/09/06 07:32:21;;;;;;;5.47;1.30;;;;;;;15.41;100.00;101418.28;5011417;28;20429;-84
2022/09/06 07:34:54;;;;;;;3.53;1.30;;;;;;;15.52;100.00;101418.94;4987861;28;20436;-86
2022/09/06 07:37:29;;;;;;;4.45;1.20;;;;;;;15.61;100.00;101408.94;4994668;28;20427;-87
2022/09/06 07:40:02;;;;;;;3.87;1.10;;;;;;;15.68;100.00;101405.03;4998256;28;21162;-85
2022/09/06 07:42:36;;;;;;;5.22;1.20;;;;;;;15.70;100.00;101409.13;4997027;28;20437;-85
2022/09/06 07:45:10;;;;;;;4.38;1.20;;;;;;;15.78;100.00;101407.63;5013925;28;20434;-88
2022/09/06 07:47:43;;;;;;;5.70;1.30;;;;;;;15.77;100.00;101397.75;5000085;28;20439;-87
2022/09/06 07:50:16;;;;;;;2.90;1.42;;;;;;;15.85;100.00;101402.59;5016467;28;20432;-84
2022/09/06 07:52:50;;;;;;;4.65;2.03;;;;;;;15.84;99.55;101390.00;5014133;28;20446;-84
2022/09/06 07:55:24;;;;;;;4.55;1.20;;;;;;;15.76;100.00;101398.88;5018109;28;20427;-86
2022/09/06 07:57:53;;;;;;;4.00;1.25;;;;;;;15.88;100.00;101402.00;5014590;28;21404;-84
2022/09/06 08:00:21;;;;;;;4.07;1.33;;;;;;;15.88;100.00;101412.16;5005663;28;20423;-85
2022/09/06 08:02:54;;;;;;;4.10;1.45;;;;;;;15.94;100.00;101410.97;4994795;28;20434;-87
2022/09/06 08:05:27;;;;;;;3.92;1.30;;;;;;;15.97;100.00;101410.38;5012972;28;20439;-86
2022/09/06 08:08:02;;;;;;;5.97;1.50;;;;;;;16.04;100.00;101413.56;4991984;28;20436;-85
2022/09/06 08:10:35;;;;;;;2.63;1.30;;;;;;;16.05;100.00;101422.63;5006489;28;20444;-86
2022/09/06 08:13:08;;;;;;;6.70;1.40;;;;;;;16.12;100.00;101418.38;5006421;28;20431;-87
2022/09/06 08:15:41;;;;;;;5.63;2.10;;;;;;;16.26;100.00;101414.84;5004071;28;20528;-82
2022/09/06 08:18:15;;;;;;;7.43;1.70;;;;;;;16.27;100.00;101405.50;4980016;28;20445;-85
2022/09/06 08:20:43;;;;;;;6.32;1.50;;;;;;;16.28;100.00;101420.84;4987800;28;20444;-84
2022/09/06 08:23:12;;;;;;;10.23;1.70;;;;;;;16.23;100.00;101408.03;4986722;28;20431;-85
2022/09/06 08:25:56;;;;;;;6.30;1.75;;;;;;;16.33;100.00;101413.34;5008068;28;20430;-84
2022/09/06 08:28:29;;;;;;;3.42;1.63;;;;;;;16.45;100.00;101404.63;5007238;28;22094;-86
2022/09/06 08:31:07;;;;;;;4.45;1.42;;;;;;;16.45;100.00;101404.63;5002826;28;20441;-85
2022/09/06 08:33:41;;;;;;;3.63;1.50;;;;;;;16.63;99.61;101399.38;4993646;28;20438;-84
2022/09/06 08:36:10;;;;;;;3.85;1.27;;;;;;;16.66;100.00;101396.03;5003362;28;20430;-84
2022/09/06 08:38:45;;;;;;;2.70;1.50;;;;;;;16.74;100.00;101400.81;5007547;28;20433;-86
2022/09/06 08:41:24;;;;;;;4.13;1.40;;;;;;;16.74;98.20;101398.06;4984516;28;21741;-84
2022/09/06 08:43:55;;;;;;;3.88;1.42;;;;;;;16.87;100.00;101401.13;4995189;28;20419;-84
2022/09/06 08:46:36;;;;;;;3.30;1.50;;;;;;;17.01;100.00;101393.72;5006678;28;20449;-80
2022/09/06 08:49:09;;;;;;;7.95;1.90;;;;;;;17.07;95.06;101373.25;5014334;28;21129;-84
2022/09/06 08:52:07;;;;;;;9.13;1.55;;;;;;;17.18;96.76;101390.34;4999399;28;20440;-83
2022/09/06 08:54:48;;;;;;;10.57;1.63;;;;;;;17.33;99.73;101390.03;5011535;28;20450;-84
2022/09/06 08:57:34;;;;;;;3.22;1.33;;;;;;;17.53;100.00;101387.94;5021672;28;20446;-86
2022/09/06 09:00:12;;;;;;;5.50;1.50;;;;;;;17.77;100.00;101389.59;5021089;28;20977;-83
2022/09/06 09:02:50;;;;;;;3.20;1.50;;;;;;;17.73;91.19;101394.94;4997999;28;20428;-83
2022/09/06 09:05:28;;;;;;;3.40;1.60;;;;;;;17.89;96.56;101392.59;4998401;28;21471;-83
2022/09/06 09:08:07;;;;;;;4.20;1.67;;;;;;;17.67;95.75;101385.94;5020364;28;20833;-83
2022/09/06 09:10:46;;;;;;;7.93;1.77;;;;;;;17.68;95.51;101395.84;4998837;28;20430;-84
2022/09/06 09:13:24;;;;;;;6.25;1.45;;;;;;;17.62;97.33;101405.34;5019256;28;20417;-82
2022/09/06 09:15:58;;;;;;;5.32;1.58;;;;;;;17.74;91.42;101398.47;5000553;28;20440;-84
2022/09/06 09:18:37;;;;;;;3.05;1.45;;;;;;;17.67;99.71;101396.97;5017464;28;20489;-83
2022/09/06 09:21:05;;;;;;;6.80;1.50;;;;;;;17.71;88.54;101397.16;5011485;28;20472;-84
2022/09/06 09:23:39;;;;;;;6.95;1.50;;;;;;;17.91;93.63;101401.41;5009930;28;20420;-83
2022/09/06 09:26:15;;;;;;;3.25;1.42;;;;;;;17.97;94.42;101399.34;5010050;28;21022;-84
2022/09/06 09:29:05;;;;;;;2.35;1.30;;;;;;;18.01;92.13;101397.59;5011760;28;21099;-83
2022/09/06 09:31:35;;;;;;;5.00;2.15;;;;;;;18.08;87.04;101388.91;4995991;28;20958;-84
2022/09/06 09:34:11;;;;;;;5.53;1.60;;;;;;;18.11;83.10;101393.78;5011432;28;20425;-86
2022/09/06 09:36:45;;;;;;;3.97;1.85;;;;;;;18.12;81.71;101379.69;5008847;28;20444;-84
2022/09/06 09:39:18;;;;;;;7.05;1.60;;;;;;;17.98;87.14;101367.91;4989274;28;22493;-83
2022/09/06 09:41:52;;;;;;;8.02;2.10;;;;;;;18.10;97.65;101379.19;4998690;28;20425;-83
2022/09/06 09:44:28;;;;;;;2.95;1.35;;;;;;;18.01;86.23;101368.13;4995513;28;21242;-83
2022/09/06 09:46:57;;;;;;;7.07;1.65;;;;;;;18.00;100.00;101371.19;4997428;28;20431;-82
2022/09/06 09:49:31;;;;;;;4.85;1.52;;;;;;;18.17;93.42;101376.81;4994914;28;20441;-84
2022/09/06 09:52:07;;;;;;;5.65;1.60;;;;;;;18.19;95.11;101377.31;5009956;28;21320;-86
2022/09/06 09:54:43;;;;;;;8.75;1.52;;;;;;;18.21;98.07;101374.22;4995193;28;20791;-84
2022/09/06 09:57:19;;;;;;;2.92;1.30;;;;;;;18.12;89.13;101362.38;4994470;28;20452;-85
2022/09/06 09:59:56;;;;;;;6.38;1.50;;;;;;;18.17;82.04;101371.31;5012407;28;20930;-83
2022/09/06 10:02:34;;;;;;;3.88;1.40;;;;;;;18.02;84.12;101369.75;5015212;28;20426;-83
2022/09/06 10:05:18;;;;;;;3.45;1.40;;;;;;;18.02;94.14;101371.66;5013138;28;20435;-83
2022/09/06 10:07:54;;;;;;;4.30;1.67;;;;;;;18.03;95.39;101356.78;4994653;28;20450;-84
2022/09/06 10:10:29;;;;;;;8.85;4.13;;;;;;;18.04;83.51;101352.91;4994298;28;20434;-84
2022/09/06 10:13:13;;;;;;;4.13;1.45;;;;;;;17.93;88.17;101351.53;5001018;28;20437;-83
2022/09/06 10:15:48;;;;;;;2.60;1.40;;;;;;;17.88;92.21;101349.69;5001161;28;20533;-83
2022/09/06 10:18:30;;;;;;;6.75;1.40;;;;;;;17.88;85.97;101343.38;5002976;28;20440;-81
2022/09/06 10:21:01;;;;;;;3.30;1.30;;;;;;;17.88;91.92;101340.63;5001980;28;20433;-85
2022/09/06 10:23:52;;;;;;;6.38;1.67;;;;;;;17.93;93.27;101351.53;5001613;28;20425;-83
2022/09/06 10:26:32;;;;;;;4.65;1.45;;;;;;;18.02;91.99;101338.63;4983837;28;20460;-82
2022/09/06 10:29:08;;;;;;;4.63;1.25;;;;;;;18.07;85.86;101332.19;4985647;28;20428;-83
2022/09/06 10:32:10;;;;;;;4.47;1.42;;;;;;;18.06;84.88;101322.28;5010234;28;20440;-83
2022/09/06 10:34:58;;;;;;;4.93;1.52;;;;;;;17.94;93.36;101328.34;4987013;28;20423;-82
2022/09/06 10:37:44;;;;;;;6.03;1.40;;;;;;;17.85;87.89;101325.53;5004226;28;20991;-84
2022/09/06 10:40:23;;;;;;;3.00;1.40;;;;;;;18.00;90.76;101314.16;4985878;28;20446;-84
2022/09/06 10:43:00;;;;;;;4.80;1.40;;;;;;;17.97;91.25;101328.56;5001405;28;20944;-84
2022/09/06 10:45:37;;;;;;;4.20;1.40;;;;;;;18.08;86.85;101318.09;5009658;28;20415;-84
2022/09/06 10:48:19;;;;;;;7.18;1.65;;;;;;;18.07;85.21;101316.47;5014531;28;20426;-85
2022/09/06 10:50:55;;;;;;;2.97;1.40;;;;;;;18.17;89.95;101318.13;5014560;28;20434;-84
2022/09/06 10:53:39;;;;;;;6.32;1.50;;;;;;;18.17;90.95;101318.97;4997679;28;20450;-85
2022/09/06 10:56:18;;;;;;;3.05;1.60;;;;;;;18.04;90.91;101310.78;5020000;28;20414;-81
2022/09/06 10:58:59;;;;;;;3.97;1.90;;;;;;;18.17;90.73;101307.13;4991859;28;20445;-84
2022/09/06 11:01:40;;;;;;;5.10;1.60;;;;;;;18.17;87.21;101298.84;5018059;28;20499;-84
2022/09/06 11:04:30;;;;;;;2.87;1.50;;;;;;;18.24;82.06;101307.47;5086263;27;20377;-83
2022/09/06 11:07:09;;;;;;;3.17;1.48;;;;;;;18.32;97.41;101305.91;5085266;28;20417;-82
2022/09/06 11:09:41;;;;;;;2.95;1.45;;;;;;;18.26;93.22;101296.97;5089505;28;20908;-83
2022/09/06 11:12:19;;;;;;;6.97;1.58;;;;;;;18.30;83.25;101303.47;5081858;28;20436;-82
2022/09/06 11:14:52;;;;;;;3.67;1.60;;;;;;;18.27;93.72;101297.75;5083640;28;20428;-82
2022/09/06 11:17:30;;;;;;;3.17;1.52;;;;;;;18.27;91.14;101286.75;5084987;28;20417;-83
2022/09/06 11:20:11;;;;;;;4.38;1.48;;;;;;;18.40;83.98;101290.53;5071562;28;21008;-83
2022/09/06 11:23:04;;;;;;;3.33;1.60;;;;;;;18.39;92.14;101292.47;5059911;28;20471;-83
2022/09/06 11:26:05;;;;;;;5.65;1.60;;;;;;;18.42;84.51;101285.50;5065374;28;20430;-84
2022/09/06 11:28:43;;;;;;;3.20;1.45;;;;;;;18.25;92.87;101284.31;5062287;28;20438;-84
2022/09/06 11:31:24;;;;;;;3.30;1.40;;;;;;;18.21;96.51;101299.03;5099627;27;20431;-83
2022/09/06 11:34:08;;;;;;;5.72;1.70;;;;;;;18.27;100.00;101295.84;5063801;28;20422;-83
2022/09/06 11:36:47;;;;;;;4.73;1.50;;;;;;;18.28;85.95;101299.41;5069063;28;20423;-83
2022/09/06 11:39:27;;;;;;;3.10;1.40;;;;;;;18.22;95.06;101293.22;5062597;28;20431;-84
2022/09/06 11:42:01;;;;;;;4.90;1.48;;;;;;;18.27;94.61;101297.75;5059230;28;20426;-83
2022/09/06 11:44:52;;;;;;;9.50;1.60;;;;;;;18.47;88.31;101286.19;5088564;27;20423;-83
2022/09/06 11:47:39;;;;;;;3.42;1.30;;;;;;;18.47;91.90;101288.13;5063721;28;20431;-82
2022/09/06 11:50:46;;;;;;;7.03;1.40;;;;;;;18.48;85.61;101289.75;5058755;28;21839;-82
2022/09/06 11:53:22;;;;;;;5.97;2.20;;;;;;;18.45;95.59;101280.19;5057598;28;20431;-83
2022/09/06 11:55:51;;;;;;;5.63;1.38;;;;;;;18.53;89.77;101284.09;5080248;28;20430;-82
2022/09/06 11:58:30;;;;;;;4.47;1.40;;;;;;;18.53;89.35;101281.31;5060230;28;20423;-82